»·PEaware :: SWA282 KBOI-KSLC

SWA282 :: KBOI-KSLC

FLIGHT INFORMATION

Flight Status: Arrived
Operator:
Southwest Airlines
More flights by this operator :: More flights under this callsign
Pilot: Charles D. (23067)
Aircraft: BOEING 737-800
(B738)
More flights by this aircraft type
Origin: KBOI Boise Air Terminal/Gowen
United States
Destination: KSLC Salt Lake City Intl
United States
More flights between these airports :: More routes between these airports
Route: +BOI3 ROARR BYI SKEES5
File this flight plan on PilotEdge
Remarks: PBN / A1B1C1D1S1S2 DOF / 190129 REG / SWA282 PER / C RMK / TCAS SIMBRIEF
Altitude:
(Current/Filed)
31,000ft
Speed:
(Current/Filed)
402kts
Departed: 29-Jan-19 11:57 AM
Arrived: 29-Jan-19 12:41 PM
Distance/Time
Traveled:
252nm/0:43
Distance/Time
To Go:
Arrived

Flight Plot

Page will automatically refresh every two minutes.

Flight plan parsing failed; only flown route is shown


Map Options




Map Legend


Flown Route
Filed Route
Departure Airport
Arrival Airport
Navaid (VOR, NDB)
Fix

Horizontal Profiles

Position Reports

Time Latitude Longitude Heading Altitude Ground
Speed
29-Jan-19 11:33 43.566926 -116.219695 29 2879ft 0kts
29-Jan-19 11:34 43.566926 -116.219695 29 2879ft 0kts
29-Jan-19 11:35 43.566926 -116.219695 29 2879ft 0kts
29-Jan-19 11:36 43.566926 -116.219695 29 2879ft 0kts
29-Jan-19 11:37 43.566926 -116.219695 29 2879ft 0kts
29-Jan-19 11:38 43.566926 -116.219695 29 2879ft 0kts
29-Jan-19 11:39 43.566926 -116.219695 29 2879ft 0kts
29-Jan-19 11:40 43.566926 -116.219695 29 2879ft 0kts
29-Jan-19 11:41 43.566926 -116.219695 29 2879ft 0kts
29-Jan-19 11:42 43.566926 -116.219695 29 2879ft 0kts
29-Jan-19 11:43 43.566926 -116.219695 29 2879ft 0kts
29-Jan-19 11:44 43.566926 -116.219695 29 2879ft 0kts
29-Jan-19 11:45 43.566926 -116.219695 29 2879ft 0kts
29-Jan-19 11:46 43.566926 -116.219695 29 2879ft 0kts
29-Jan-19 11:47 43.566645 -116.219914 29 2879ft 1kts
29-Jan-19 11:48 43.566272 -116.219783 290 2879ft 1kts
29-Jan-19 11:49 43.566256 -116.219725 294 2879ft 0kts
29-Jan-19 11:50 43.566256 -116.219725 294 2879ft 0kts
29-Jan-19 11:51 43.566227 -116.220627 234 2879ft 15kts
29-Jan-19 11:52 43.569497 -116.231245 296 2879ft 36kts
29-Jan-19 11:53 43.571004 -116.235920 256 2879ft 0kts
29-Jan-19 11:54 43.571004 -116.235920 256 2879ft 0kts
29-Jan-19 11:55 43.570063 -116.236221 133 2879ft 22kts
29-Jan-19 11:56 43.554551 -116.191612 111 4434ft 173kts
29-Jan-19 11:57 43.534858 -116.119887 110 6493ft 246kts
29-Jan-19 11:58 43.507939 -116.023004 109 10077ft 281kts
29-Jan-19 12:00 43.475458 -115.907459 109 12514ft 357kts
29-Jan-19 12:01 43.432845 -115.779064 112 16315ft 381kts
29-Jan-19 12:02 43.385542 -115.640754 111 19729ft 407kts
29-Jan-19 12:03 43.335468 -115.495144 110 22736ft 434kts
29-Jan-19 12:04 43.280407 -115.342178 117 25410ft 464kts
29-Jan-19 12:05 43.208713 -115.188589 118 27818ft 492kts
29-Jan-19 12:06 43.133673 -115.027694 119 30279ft 509kts
29-Jan-19 12:07 43.056409 -114.862831 119 31244ft 521kts
29-Jan-19 12:08 42.976651 -114.693631 120 31247ft 520kts
29-Jan-19 12:09 42.897828 -114.527339 120 31247ft 518kts
29-Jan-19 12:10 42.820158 -114.364405 121 31239ft 517kts
29-Jan-19 12:11 42.742042 -114.201154 121 31233ft 517kts
29-Jan-19 12:12 42.663347 -114.037569 121 31235ft 517kts
29-Jan-19 12:13 42.583377 -113.873300 124 31236ft 518kts
29-Jan-19 12:14 42.481625 -113.733662 135 31240ft 518kts
29-Jan-19 12:15 42.378792 -113.596570 135 31242ft 519kts
29-Jan-19 12:16 42.275922 -113.459957 135 31244ft 519kts
29-Jan-19 12:16 42.190385 -113.346888 136 31245ft 519kts
29-Jan-19 12:18 42.070065 -113.188279 136 31240ft 519kts
29-Jan-19 12:19 41.967053 -113.053240 136 31240ft 519kts
29-Jan-19 12:20 41.864050 -112.918917 135 27939ft 520kts
29-Jan-19 12:21 41.764353 -112.789602 134 24657ft 477kts
29-Jan-19 12:22 41.677073 -112.676985 133 21871ft 424kts
29-Jan-19 12:22 41.604913 -112.584145 133 19600ft 407kts
29-Jan-19 12:23 41.525003 -112.483509 140 17055ft 398kts
29-Jan-19 12:24 41.431630 -112.405313 152 17018ft 400kts
29-Jan-19 12:25 41.333544 -112.337454 151 15665ft 396kts
29-Jan-19 12:26 41.239563 -112.271354 151 13180ft 364kts
29-Jan-19 12:27 41.151795 -112.205266 149 12988ft 366kts
29-Jan-19 12:28 41.063749 -112.144684 165 12991ft 366kts
29-Jan-19 12:29 40.964679 -112.122522 171 12588ft 360kts
29-Jan-19 12:30 40.868093 -112.104192 175 10993ft 351kts
29-Jan-19 12:31 40.771988 -112.093717 175 10602ft 332kts
29-Jan-19 12:32 40.688826 -112.084154 176 9580ft 286kts
29-Jan-19 12:33 40.610781 -112.075213 174 8986ft 257kts
29-Jan-19 12:34 40.560970 -112.031393 98 8288ft 236kts
29-Jan-19 12:35 40.591174 -111.971860 21 7071ft 227kts
29-Jan-19 12:36 40.643385 -111.957835 356 6812ft 205kts
29-Jan-19 12:37 40.696588 -111.964105 356 5804ft 182kts
29-Jan-19 12:38 40.740128 -111.969148 357 4940ft 141kts
29-Jan-19 12:39 40.775040 -111.973178 356 4283ft 138kts
29-Jan-19 12:40 40.792119 -111.976684 272 4235ft 1kts
29-Jan-19 12:41 40.791386 -111.977241 172 4235ft 15kts

Navigation Log

Ident Type
Flight plan parsing failed, navigation log unavailable